sensor_id;sensor_type;location;lat;lon;timestamp;pressure;altitude;pressure_sealevel;temperature;humidity
43770;BME280;6597;52.218;9.882;2023-12-14T00:00:22;99893.59;;;3.98;100.00
43770;BME280;6597;52.218;9.882;2023-12-14T00:02:49;99892.78;;;3.96;100.00
43770;BME280;6597;52.218;9.882;2023-12-14T00:05:17;99898.09;;;3.89;100.00
43770;BME280;6597;52.218;9.882;2023-12-14T00:07:43;99899.88;;;3.87;100.00
43770;BME280;6597;52.218;9.882;2023-12-14T00:10:10;99904.38;;;3.79;100.00
43770;BME280;6597;52.218;9.882;2023-12-14T00:12:37;99903.53;;;3.78;100.00
43770;BME280;6597;52.218;9.882;2023-12-14T00:15:05;99910.53;;;3.74;100.00
43770;BME280;6597;52.218;9.882;2023-12-14T00:17:32;99905.38;;;3.73;100.00
43770;BME280;6597;52.218;9.882;2023-12-14T00:19:58;99924.34;;;3.77;100.00
43770;BME280;6597;52.218;9.882;2023-12-14T00:22:26;99918.47;;;3.68;100.00
43770;BME280;6597;52.218;9.882;2023-12-14T00:24:53;99919.31;;;3.69;100.00
43770;BME280;6597;52.218;9.882;2023-12-14T00:27:19;99926.16;;;3.73;100.00
43770;BME280;6597;52.218;9.882;2023-12-14T00:29:46;99932.34;;;3.66;100.00
43770;BME280;6597;52.218;9.882;2023-12-14T00:32:12;99947.09;;;3.64;100.00
43770;BME280;6597;52.218;9.882;2023-12-14T00:34:39;99944.41;;;3.68;100.00
43770;BME280;6597;52.218;9.882;2023-12-14T00:37:06;99942.81;;;3.63;100.00
43770;BME280;6597;52.218;9.882;2023-12-14T00:39:34;99952.28;;;3.64;100.00
43770;BME280;6597;52.218;9.882;2023-12-14T00:42:01;99949.81;;;3.56;100.00
43770;BME280;6597;52.218;9.882;2023-12-14T00:44:27;99950.72;;;3.55;100.00
43770;BME280;6597;52.218;9.882;2023-12-14T00:46:54;99949.03;;;3.53;100.00
43770;BME280;6597;52.218;9.882;2023-12-14T00:49:20;99963.66;;;3.57;100.00
43770;BME280;6597;52.218;9.882;2023-12-14T00:51:47;99958.50;;;3.55;100.00
43770;BME280;6597;52.218;9.882;2023-12-14T00:54:13;99974.88;;;3.57;100.00
43770;BME280;6597;52.218;9.882;2023-12-14T00:56:41;99974.16;;;3.51;100.00
43770;BME280;6597;52.218;9.882;2023-12-14T00:59:08;99987.13;;;3.51;100.00
43770;BME280;6597;52.218;9.882;2023-12-14T01:01:34;99997.50;;;3.51;100.00
43770;BME280;6597;52.218;9.882;2023-12-14T01:04:01;99998.47;;;3.45;100.00
43770;BME280;6597;52.218;9.882;2023-12-14T01:06:27;99996.00;;;3.39;100.00
43770;BME280;6597;52.218;9.882;2023-12-14T01:08:54;99998.50;;;3.43;100.00
43770;BME280;6597;52.218;9.882;2023-12-14T01:11:20;100018.28;;;3.49;100.00
43770;BME280;6597;52.218;9.882;2023-12-14T01:13:48;100019.94;;;3.53;100.00
43770;BME280;6597;52.218;9.882;2023-12-14T01:16:15;100013.91;;;3.53;100.00
43770;BME280;6597;52.218;9.882;2023-12-14T01:18:41;100027.72;;;3.53;100.00
43770;BME280;6597;52.218;9.882;2023-12-14T01:21:08;100039.78;;;3.56;100.00
43770;BME280;6597;52.218;9.882;2023-12-14T01:23:34;100047.63;;;3.53;100.00
43770;BME280;6597;52.218;9.882;2023-12-14T01:26:01;100044.16;;;3.54;100.00
43770;BME280;6597;52.218;9.882;2023-12-14T01:28:27;100041.50;;;3.57;100.00
43770;BME280;6597;52.218;9.882;2023-12-14T01:30:55;100056.22;;;3.58;100.00
43770;BME280;6597;52.218;9.882;2023-12-14T01:33:22;100047.63;;;3.53;100.00
43770;BME280;6597;52.218;9.882;2023-12-14T01:35:49;100059.75;;;3.52;100.00
43770;BME280;6597;52.218;9.882;2023-12-14T01:38:15;100060.63;;;3.51;100.00
43770;BME280;6597;52.218;9.882;2023-12-14T01:40:42;100059.91;;;3.43;100.00
43770;BME280;6597;52.218;9.882;2023-12-14T01:43:08;100072.97;;;3.38;100.00
43770;BME280;6597;52.218;9.882;2023-12-14T01:45:36;100076.44;;;3.37;100.00
43770;BME280;6597;52.218;9.882;2023-12-14T01:48:04;100075.59;;;3.37;100.00
43770;BME280;6597;52.218;9.882;2023-12-14T01:50:30;100069.56;;;3.35;100.00
43770;BME280;6597;52.218;9.882;2023-12-14T01:52:57;100079.22;;;3.27;100.00
43770;BME280;6597;52.218;9.882;2023-12-14T01:55:23;100080.13;;;3.26;100.00
43770;BME280;6597;52.218;9.882;2023-12-14T01:57:51;100074.94;;;3.26;100.00
43770;BME280;6597;52.218;9.882;2023-12-14T02:00:29;100080.09;;;3.24;100.00
43770;BME280;6597;52.218;9.882;2023-12-14T02:02:57;100086.16;;;3.25;100.00
43770;BME280;6597;52.218;9.882;2023-12-14T02:05:25;100093.94;;;3.25;100.00
43770;BME280;6597;52.218;9.882;2023-12-14T02:07:51;100103.53;;;3.20;100.00
43770;BME280;6597;52.218;9.882;2023-12-14T02:10:18;100106.16;;;3.18;100.00
43770;BME280;6597;52.218;9.882;2023-12-14T02:12:44;100110.50;;;3.16;100.00
43770;BME280;6597;52.218;9.882;2023-12-14T02:15:11;100114.00;;;3.13;100.00
43770;BME280;6597;52.218;9.882;2023-12-14T02:17:38;100117.53;;;3.08;100.00
43770;BME280;6597;52.218;9.882;2023-12-14T02:20:07;100120.13;;;3.09;100.00
43770;BME280;6597;52.218;9.882;2023-12-14T02:22:47;100121.81;;;3.10;100.00
43770;BME280;6597;52.218;9.882;2023-12-14T02:25:15;100127.91;;;3.09;100.00
43770;BME280;6597;52.218;9.882;2023-12-14T02:27:41;100138.22;;;3.12;100.00
43770;BME280;6597;52.218;9.882;2023-12-14T02:30:09;100141.69;;;3.11;100.00
43770;BME280;6597;52.218;9.882;2023-12-14T02:32:35;100143.38;;;3.14;100.00
43770;BME280;6597;52.218;9.882;2023-12-14T02:35:03;100140.78;;;3.14;100.00
43770;BME280;6597;52.218;9.882;2023-12-14T02:37:29;100142.44;;;3.18;100.00
43770;BME280;6597;52.218;9.882;2023-12-14T02:39:57;100136.44;;;3.16;100.00
43770;BME280;6597;52.218;9.882;2023-12-14T02:42:24;100141.56;;;3.19;100.00
43770;BME280;6597;52.218;9.882;2023-12-14T02:44:50;100147.69;;;3.15;100.00
43770;BME280;6597;52.218;9.882;2023-12-14T02:47:17;100145.16;;;3.12;100.00
43770;BME280;6597;52.218;9.882;2023-12-14T02:49:43;100152.09;;;3.10;100.00
43770;BME280;6597;52.218;9.882;2023-12-14T02:52:10;100159.94;;;3.05;100.00
43770;BME280;6597;52.218;9.882;2023-12-14T02:54:38;100164.25;;;3.06;100.00
43770;BME280;6597;52.218;9.882;2023-12-14T02:57:07;100162.50;;;3.08;100.00
43770;BME280;6597;52.218;9.882;2023-12-14T02:59:33;100176.34;;;3.06;100.00
43770;BME280;6597;52.218;9.882;2023-12-14T03:02:00;100178.94;;;3.06;100.00
43770;BME280;6597;52.218;9.882;2023-12-14T03:04:26;100173.75;;;3.06;100.00
43770;BME280;6597;52.218;9.882;2023-12-14T03:06:53;100172.97;;;3.01;100.00
43770;BME280;6597;52.218;9.882;2023-12-14T03:09:21;100174.69;;;3.02;100.00
43770;BME280;6597;52.218;9.882;2023-12-14T03:11:47;100185.06;;;3.02;100.00
43770;BME280;6597;52.218;9.882;2023-12-14T03:14:15;100191.94;;;3.04;100.00
43770;BME280;6597;52.218;9.882;2023-12-14T03:16:42;100190.25;;;3.00;100.00
43770;BME280;6597;52.218;9.882;2023-12-14T03:19:08;100182.53;;;2.97;100.00
43770;BME280;6597;52.218;9.882;2023-12-14T03:21:35;100187.69;;;2.99;100.00
43770;BME280;6597;52.218;9.882;2023-12-14T03:24:01;100189.50;;;2.94;100.00
43770;BME280;6597;52.218;9.882;2023-12-14T03:26:28;100190.34;;;2.91;100.00
43770;BME280;6597;52.218;9.882;2023-12-14T03:28:55;100189.50;;;2.94;100.00
43770;BME280;6597;52.218;9.882;2023-12-14T03:31:23;100202.47;;;2.91;100.00
43770;BME280;6597;52.218;9.882;2023-12-14T03:33:49;100209.38;;;2.92;100.00
43770;BME280;6597;52.218;9.882;2023-12-14T03:36:16;100199.91;;;2.89;100.00
43770;BME280;6597;52.218;9.882;2023-12-14T03:38:42;100206.78;;;2.90;100.00
43770;BME280;6597;52.218;9.882;2023-12-14T03:41:09;100212.91;;;2.86;100.00
43770;BME280;6597;52.218;9.882;2023-12-14T03:43:35;100212.03;;;2.86;100.00
43770;BME280;6597;52.218;9.882;2023-12-14T03:46:02;100212.84;;;2.91;100.00
43770;BME280;6597;52.218;9.882;2023-12-14T03:48:30;100232.69;;;2.92;100.00
43770;BME280;6597;52.218;9.882;2023-12-14T03:50:56;100227.50;;;2.95;100.00
43770;BME280;6597;52.218;9.882;2023-12-14T03:53:23;100235.28;;;2.95;100.00
43770;BME280;6597;52.218;9.882;2023-12-14T03:55:49;100241.34;;;2.91;100.00
43770;BME280;6597;52.218;9.882;2023-12-14T03:58:16;100239.63;;;2.91;100.00
43770;BME280;6597;52.218;9.882;2023-12-14T04:00:42;100247.44;;;2.88;100.00
43770;BME280;6597;52.218;9.882;2023-12-14T04:03:09;100244.00;;;2.86;100.00
43770;BME280;6597;52.218;9.882;2023-12-14T04:05:36;100242.28;;;2.87;100.00
43770;BME280;6597;52.218;9.882;2023-12-14T04:08:04;100244.88;;;2.87;100.00
43770;BME280;6597;52.218;9.882;2023-12-14T04:10:30;100248.38;;;2.83;100.00
43770;BME280;6597;52.218;9.882;2023-12-14T04:12:57;100254.38;;;2.85;100.00
43770;BME280;6597;52.218;9.882;2023-12-14T04:15:23;100255.22;;;2.87;100.00
43770;BME280;6597;52.218;9.882;2023-12-14T04:17:50;100260.38;;;2.90;100.00
43770;BME280;6597;52.218;9.882;2023-12-14T04:20:16;100274.19;;;2.92;100.00
43770;BME280;6597;52.218;9.882;2023-12-14T04:22:44;100272.44;;;2.92;100.00
43770;BME280;6597;52.218;9.882;2023-12-14T04:25:11;100275.88;;;2.96;100.00
43770;BME280;6597;52.218;9.882;2023-12-14T04:27:38;100282.78;;;2.97;100.00
43770;BME280;6597;52.218;9.882;2023-12-14T04:30:06;100293.13;;;2.98;100.00
43770;BME280;6597;52.218;9.882;2023-12-14T04:32:35;100298.34;;;2.97;100.00
43770;BME280;6597;52.218;9.882;2023-12-14T04:35:02;100300.09;;;2.95;100.00
43770;BME280;6597;52.218;9.882;2023-12-14T04:37:29;100308.72;;;2.97;100.00
43770;BME280;6597;52.218;9.882;2023-12-14T04:39:57;100305.16;;;3.04;100.00
43770;BME280;6597;52.218;9.882;2023-12-14T04:42:24;100316.41;;;3.03;100.00
43770;BME280;6597;52.218;9.882;2023-12-14T04:44:50;100316.47;;;2.98;100.00
43770;BME280;6597;52.218;9.882;2023-12-14T04:47:17;100316.50;;;2.97;100.00
43770;BME280;6597;52.218;9.882;2023-12-14T04:49:43;100310.47;;;2.95;100.00
43770;BME280;6597;52.218;9.882;2023-12-14T04:52:10;100329.50;;;2.94;100.00
43770;BME280;6597;52.218;9.882;2023-12-14T04:54:36;100329.50;;;2.91;100.00
43770;BME280;6597;52.218;9.882;2023-12-14T04:57:07;100330.34;;;2.91;100.00
43770;BME280;6597;52.218;9.882;2023-12-14T04:59:33;100333.81;;;2.92;100.00
43770;BME280;6597;52.218;9.882;2023-12-14T05:02:00;100344.19;;;2.90;100.00
43770;BME280;6597;52.218;9.882;2023-12-14T05:04:26;100345.97;;;2.85;100.00
43770;BME280;6597;52.218;9.882;2023-12-14T05:06:53;100350.28;;;2.86;100.00
43770;BME280;6597;52.218;9.882;2023-12-14T05:09:19;100353.69;;;2.90;100.00
43770;BME280;6597;52.218;9.882;2023-12-14T05:11:46;100334.84;;;2.75;100.00
43770;BME280;6597;52.218;9.882;2023-12-14T05:14:14;100361.47;;;2.91;100.00
43770;BME280;6597;52.218;9.882;2023-12-14T05:16:40;100359.72;;;2.92;100.00
43770;BME280;6597;52.218;9.882;2023-12-14T05:19:07;100364.06;;;2.91;100.00
43770;BME280;6597;52.218;9.882;2023-12-14T05:21:33;100366.66;;;2.90;100.00
43770;BME280;6597;52.218;9.882;2023-12-14T05:24:00;100374.44;;;2.90;100.00
43770;BME280;6597;52.218;9.882;2023-12-14T05:26:26;100386.50;;;2.92;100.00
43770;BME280;6597;52.218;9.882;2023-12-14T05:28:53;100381.34;;;2.91;100.00
43770;BME280;6597;52.218;9.882;2023-12-14T05:31:21;100383.91;;;2.92;100.00
43770;BME280;6597;52.218;9.882;2023-12-14T05:33:47;100389.97;;;2.91;100.00
43770;BME280;6597;52.218;9.882;2023-12-14T05:36:14;100389.19;;;2.85;100.00
43770;BME280;6597;52.218;9.882;2023-12-14T05:38:41;100410.84;;;2.80;100.00
43770;BME280;6597;52.218;9.882;2023-12-14T05:41:08;100408.22;;;2.84;100.00
43770;BME280;6597;52.218;9.882;2023-12-14T05:43:35;100406.44;;;2.87;100.00
43770;BME280;6597;52.218;9.882;2023-12-14T05:46:02;100404.72;;;2.88;100.00
43770;BME280;6597;52.218;9.882;2023-12-14T05:48:31;100403.88;;;2.86;100.00
43770;BME280;6597;52.218;9.882;2023-12-14T05:50:57;100404.69;;;2.89;100.00
43770;BME280;6597;52.218;9.882;2023-12-14T05:53:24;100403.81;;;2.90;100.00
43770;BME280;6597;52.218;9.882;2023-12-14T05:55:50;100406.41;;;2.92;100.00
43770;BME280;6597;52.218;9.882;2023-12-14T05:58:17;100406.41;;;2.92;100.00
43770;BME280;6597;52.218;9.882;2023-12-14T06:00:44;100410.72;;;2.94;100.00
43770;BME280;6597;52.218;9.882;2023-12-14T06:03:10;100421.94;;;2.95;100.00
43770;BME280;6597;52.218;9.882;2023-12-14T06:05:38;100427.13;;;2.96;100.00
43770;BME280;6597;52.218;9.882;2023-12-14T06:08:05;100432.34;;;2.93;100.00
43770;BME280;6597;52.218;9.882;2023-12-14T06:10:32;100440.97;;;2.94;100.00
43770;BME280;6597;52.218;9.882;2023-12-14T06:12:58;100438.38;;;2.94;100.00
43770;BME280;6597;52.218;9.882;2023-12-14T06:15:25;100452.19;;;2.97;100.00
43770;BME280;6597;52.218;9.882;2023-12-14T06:17:51;100453.91;;;2.95;100.00
43770;BME280;6597;52.218;9.882;2023-12-14T06:20:18;100457.41;;;2.93;100.00
43770;BME280;6597;52.218;9.882;2023-12-14T06:22:46;100449.59;;;2.96;100.00
43770;BME280;6597;52.218;9.882;2023-12-14T06:25:12;100451.31;;;2.98;100.00
43770;BME280;6597;52.218;9.882;2023-12-14T06:27:39;100451.28;;;3.00;100.00
43770;BME280;6597;52.218;9.882;2023-12-14T06:30:06;100448.66;;;3.03;100.00
43770;BME280;6597;52.218;9.882;2023-12-14T06:32:34;100448.66;;;3.03;100.00
43770;BME280;6597;52.218;9.882;2023-12-14T06:35:01;100449.53;;;3.02;100.00
43770;BME280;6597;52.218;9.882;2023-12-14T06:37:28;100455.59;;;3.02;100.00
43770;BME280;6597;52.218;9.882;2023-12-14T06:39:55;100464.25;;;2.98;100.00
43770;BME280;6597;52.218;9.882;2023-12-14T06:42:22;100477.25;;;2.97;100.00
43770;BME280;6597;52.218;9.882;2023-12-14T06:44:49;100476.38;;;2.96;100.00
43770;BME280;6597;52.218;9.882;2023-12-14T06:47:15;100477.28;;;2.94;100.00
43770;BME280;6597;52.218;9.882;2023-12-14T06:49:42;100481.59;;;2.95;100.00
43770;BME280;6597;52.218;9.882;2023-12-14T06:52:08;100478.97;;;2.98;100.00
43770;BME280;6597;52.218;9.882;2023-12-14T06:54:35;100487.56;;;3.01;100.00
43770;BME280;6597;52.218;9.882;2023-12-14T06:57:03;100485.84;;;3.00;100.00
43770;BME280;6597;52.218;9.882;2023-12-14T06:59:30;100491.88;;;3.02;100.00
43770;BME280;6597;52.218;9.882;2023-12-14T07:01:56;100503.97;;;3.03;100.00
43770;BME280;6597;52.218;9.882;2023-12-14T07:04:23;100504.00;;;3.02;100.00
43770;BME280;6597;52.218;9.882;2023-12-14T07:06:50;100515.22;;;3.01;100.00
43770;BME280;6597;52.218;9.882;2023-12-14T07:09:17;100521.28;;;3.03;100.00
43770;BME280;6597;52.218;9.882;2023-12-14T07:11:44;100523.03;;;2.98;100.00
43770;BME280;6597;52.218;9.882;2023-12-14T07:14:12;100535.97;;;3.02;100.00
43770;BME280;6597;52.218;9.882;2023-12-14T07:16:40;100538.59;;;2.99;100.00
43770;BME280;6597;52.218;9.882;2023-12-14T07:19:06;100537.72;;;3.00;100.00
43770;BME280;6597;52.218;9.882;2023-12-14T07:21:33;100541.16;;;3.01;100.00
43770;BME280;6597;52.218;9.882;2023-12-14T07:23:59;100545.53;;;2.97;100.00
43770;BME280;6597;52.218;9.882;2023-12-14T07:26:26;100542.09;;;2.94;100.00
43770;BME280;6597;52.218;9.882;2023-12-14T07:28:53;100549.84;;;2.92;100.00
43770;BME280;6597;52.218;9.882;2023-12-14T07:31:20;100541.22;;;2.90;100.00
43770;BME280;6597;52.218;9.882;2023-12-14T07:33:47;100563.72;;;2.93;100.00
43770;BME280;6597;52.218;9.882;2023-12-14T07:36:14;100566.28;;;2.94;100.00
43770;BME280;6597;52.218;9.882;2023-12-14T07:38:40;100567.16;;;2.90;100.00
43770;BME280;6597;52.218;9.882;2023-12-14T07:41:07;100580.09;;;2.95;100.00
43770;BME280;6597;52.218;9.882;2023-12-14T07:43:33;100581.81;;;2.97;100.00
43770;BME280;6597;52.218;9.882;2023-12-14T07:46:00;100588.72;;;3.00;100.00
43770;BME280;6597;52.218;9.882;2023-12-14T07:48:27;100594.75;;;3.00;100.00
43770;BME280;6597;52.218;9.882;2023-12-14T07:50:54;100603.38;;;3.02;100.00
43770;BME280;6597;52.218;9.882;2023-12-14T07:53:21;100605.09;;;3.03;100.00
43770;BME280;6597;52.218;9.882;2023-12-14T07:55:48;100607.69;;;3.05;100.00
43770;BME280;6597;52.218;9.882;2023-12-14T07:58:14;100617.19;;;3.07;100.00
43770;BME280;6597;52.218;9.882;2023-12-14T08:00:41;100613.75;;;3.05;100.00
43770;BME280;6597;52.218;9.882;2023-12-14T08:03:07;100624.13;;;3.04;100.00
43770;BME280;6597;52.218;9.882;2023-12-14T08:05:35;100624.97;;;3.06;100.00
43770;BME280;6597;52.218;9.882;2023-12-14T08:08:01;100625.81;;;3.08;100.00
43770;BME280;6597;52.218;9.882;2023-12-14T08:10:28;100631.88;;;3.05;100.00
43770;BME280;6597;52.218;9.882;2023-12-14T08:12:55;100639.69;;;3.04;100.00
43770;BME280;6597;52.218;9.882;2023-12-14T08:15:21;100642.25;;;3.07;100.00
43770;BME280;6597;52.218;9.882;2023-12-14T08:17:48;100642.25;;;3.07;100.00
43770;BME280;6597;52.218;9.882;2023-12-14T08:20:14;100656.94;;;3.06;100.00
43770;BME280;6597;52.218;9.882;2023-12-14T08:22:42;100659.53;;;3.09;100.00
43770;BME280;6597;52.218;9.882;2023-12-14T08:25:11;100661.25;;;3.07;100.00
43770;BME280;6597;52.218;9.882;2023-12-14T08:27:39;100666.44;;;3.07;100.00
43770;BME280;6597;52.218;9.882;2023-12-14T08:30:07;100668.19;;;3.05;100.00
43770;BME280;6597;52.218;9.882;2023-12-14T08:32:34;100674.28;;;3.01;100.00
43770;BME280;6597;52.218;9.882;2023-12-14T08:35:00;100679.44;;;3.04;100.00
43770;BME280;6597;52.218;9.882;2023-12-14T08:37:27;100678.59;;;3.04;100.00
43770;BME280;6597;52.218;9.882;2023-12-14T08:39:54;100695.91;;;2.99;100.00
43770;BME280;6597;52.218;9.882;2023-12-14T08:42:21;100694.13;;;3.04;100.00
43770;BME280;6597;52.218;9.882;2023-12-14T08:44:48;100701.91;;;3.05;100.00
43770;BME280;6597;52.218;9.882;2023-12-14T08:47:14;100701.91;;;3.05;100.00
43770;BME280;6597;52.218;9.882;2023-12-14T08:49:41;100708.78;;;3.11;100.00
43770;BME280;6597;52.218;9.882;2023-12-14T08:52:07;100707.06;;;3.11;100.00
43770;BME280;6597;52.218;9.882;2023-12-14T08:54:37;100713.97;;;3.11;100.00
43770;BME280;6597;52.218;9.882;2023-12-14T08:57:05;100714.81;;;3.13;100.00
43770;BME280;6597;52.218;9.882;2023-12-14T08:59:31;100722.59;;;3.16;100.00
43770;BME280;6597;52.218;9.882;2023-12-14T09:01:58;100734.72;;;3.14;100.00
43770;BME280;6597;52.218;9.882;2023-12-14T09:04:24;100744.22;;;3.15;100.00
43770;BME280;6597;52.218;9.882;2023-12-14T09:06:52;100752.84;;;3.16;100.00
43770;BME280;6597;52.218;9.882;2023-12-14T09:09:19;100760.63;;;3.19;100.00
43770;BME280;6597;52.218;9.882;2023-12-14T09:11:45;100760.63;;;3.19;100.00
43770;BME280;6597;52.218;9.882;2023-12-14T09:14:13;100771.88;;;3.15;100.00
43770;BME280;6597;52.218;9.882;2023-12-14T09:16:40;100759.81;;;3.09;100.00
43770;BME280;6597;52.218;9.882;2023-12-14T09:19:06;100770.16;;;3.10;100.00
43770;BME280;6597;52.218;9.882;2023-12-14T09:21:33;100766.69;;;3.16;100.00
43770;BME280;6597;52.218;9.882;2023-12-14T09:23:59;100777.06;;;3.16;100.00
43770;BME280;6597;52.218;9.882;2023-12-14T09:26:26;100781.38;;;3.19;100.00
43770;BME280;6597;52.218;9.882;2023-12-14T09:28:53;100778.75;;;3.25;100.00
43770;BME280;6597;52.218;9.882;2023-12-14T09:31:21;100784.81;;;3.25;100.00
43770;BME280;6597;52.218;9.882;2023-12-14T09:33:47;100797.78;;;3.28;100.00
43770;BME280;6597;52.218;9.882;2023-12-14T09:36:14;100802.09;;;3.28;100.00
43770;BME280;6597;52.218;9.882;2023-12-14T09:38:40;100802.09;;;3.31;100.00
43770;BME280;6597;52.218;9.882;2023-12-14T09:41:07;100802.09;;;3.31;100.00
43770;BME280;6597;52.218;9.882;2023-12-14T09:43:33;100802.09;;;3.29;100.00
43770;BME280;6597;52.218;9.882;2023-12-14T09:46:01;100809.00;;;3.33;100.00
43770;BME280;6597;52.218;9.882;2023-12-14T09:48:31;100802.91;;;3.37;100.00
43770;BME280;6597;52.218;9.882;2023-12-14T09:50:58;100808.94;;;3.44;100.00
43770;BME280;6597;52.218;9.882;2023-12-14T09:53:25;100799.41;;;3.44;100.00
43770;BME280;6597;52.218;9.882;2023-12-14T09:55:51;100805.44;;;3.48;100.00
43770;BME280;6597;52.218;9.882;2023-12-14T09:58:18;100812.34;;;3.51;100.00
43770;BME280;6597;52.218;9.882;2023-12-14T10:00:44;100804.53;;;3.57;100.00
43770;BME280;6597;52.218;9.882;2023-12-14T10:03:18;100807.13;;;3.60;100.00
43770;BME280;6597;52.218;9.882;2023-12-14T10:05:46;100809.72;;;3.60;100.00
43770;BME280;6597;52.218;9.882;2023-12-14T10:08:14;100816.59;;;3.67;100.00
43770;BME280;6597;52.218;9.882;2023-12-14T10:10:40;100822.66;;;3.69;100.00
43770;BME280;6597;52.218;9.882;2023-12-14T10:13:07;100829.53;;;3.71;100.00
43770;BME280;6597;52.218;9.882;2023-12-14T10:15:40;100839.03;;;3.79;100.00
43770;BME280;6597;52.218;9.882;2023-12-14T10:18:06;100842.47;;;3.79;100.00
43770;BME280;6597;52.218;9.882;2023-12-14T10:20:33;100842.44;;;3.84;100.00
43770;BME280;6597;52.218;9.882;2023-12-14T10:23:01;100847.66;;;3.79;100.00
43770;BME280;6597;52.218;9.882;2023-12-14T10:25:27;100850.25;;;3.81;100.00
43770;BME280;6597;52.218;9.882;2023-12-14T10:27:54;100853.72;;;3.80;100.00
43770;BME280;6597;52.218;9.882;2023-12-14T10:30:21;100855.47;;;3.78;100.00
43770;BME280;6597;52.218;9.882;2023-12-14T10:32:48;100858.94;;;3.77;100.00
43770;BME280;6597;52.218;9.882;2023-12-14T10:35:16;100866.72;;;3.77;100.00
43770;BME280;6597;52.218;9.882;2023-12-14T10:37:46;100868.47;;;3.74;100.00
43770;BME280;6597;52.218;9.882;2023-12-14T10:40:16;100871.09;;;3.70;100.00
43770;BME280;6597;52.218;9.882;2023-12-14T10:42:44;100871.97;;;3.69;100.00
43770;BME280;6597;52.218;9.882;2023-12-14T10:45:12;100869.34;;;3.72;100.00
43770;BME280;6597;52.218;9.882;2023-12-14T10:47:43;100869.34;;;3.75;100.00
43770;BME280;6597;52.218;9.882;2023-12-14T10:50:11;100884.03;;;3.76;100.00
43770;BME280;6597;52.218;9.882;2023-12-14T10:52:38;100877.09;;;3.81;100.00
43770;BME280;6597;52.218;9.882;2023-12-14T10:55:07;100877.06;;;3.84;100.00
43770;BME280;6597;52.218;9.882;2023-12-14T10:57:38;100885.69;;;3.88;100.00
43770;BME280;6597;52.218;9.882;2023-12-14T11:00:05;100884.84;;;3.92;100.00
43770;BME280;6597;52.218;9.882;2023-12-14T11:02:38;100890.91;;;3.92;100.00
43770;BME280;6597;52.218;9.882;2023-12-14T11:05:05;100896.09;;;3.86;100.00
43770;BME280;6597;52.218;9.882;2023-12-14T11:07:48;100896.97;;;3.82;100.00
43770;BME280;6597;52.218;9.882;2023-12-14T11:10:19;100893.53;;;3.79;100.00
43770;BME280;6597;52.218;9.882;2023-12-14T11:12:54;100897.03;;;3.74;100.00
43770;BME280;6597;52.218;9.882;2023-12-14T11:15:22;100898.78;;;3.71;100.00
43770;BME280;6597;52.218;9.882;2023-12-14T11:18:19;100908.28;;;3.72;100.00
43770;BME280;6597;52.218;9.882;2023-12-14T11:20:50;100918.66;;;3.75;100.00
43770;BME280;6597;52.218;9.882;2023-12-14T11:23:26;100920.38;;;3.76;100.00
43770;BME280;6597;52.218;9.882;2023-12-14T11:25:57;100917.78;;;3.78;100.00
43770;BME280;6597;52.218;9.882;2023-12-14T11:28:25;100923.84;;;3.78;100.00
43770;BME280;6597;52.218;9.882;2023-12-14T11:30:52;100920.38;;;3.76;100.00
43770;BME280;6597;52.218;9.882;2023-12-14T11:33:18;100923.88;;;3.73;100.00
43770;BME280;6597;52.218;9.882;2023-12-14T11:35:45;100931.66;;;3.75;100.00
43770;BME280;6597;52.218;9.882;2023-12-14T11:38:12;100930.78;;;3.76;100.00
43770;BME280;6597;52.218;9.882;2023-12-14T11:40:38;100930.75;;;3.82;100.00
43770;BME280;6597;52.218;9.882;2023-12-14T11:43:05;100932.47;;;3.80;100.00
43770;BME280;6597;52.218;9.882;2023-12-14T11:45:35;100938.53;;;3.84;100.00
43770;BME280;6597;52.218;9.882;2023-12-14T11:48:02;100936.81;;;3.81;100.00
43770;BME280;6597;52.218;9.882;2023-12-14T11:50:31;100948.94;;;3.81;100.00
43770;BME280;6597;52.218;9.882;2023-12-14T11:52:57;100948.06;;;3.80;100.00
43770;BME280;6597;52.218;9.882;2023-12-14T11:55:24;100947.19;;;3.81;100.00
43770;BME280;6597;52.218;9.882;2023-12-14T11:57:51;100948.94;;;3.79;100.00
43770;BME280;6597;52.218;9.882;2023-12-14T12:00:18;100946.31;;;3.82;100.00
43770;BME280;6597;52.218;9.882;2023-12-14T12:02:50;100943.72;;;3.82;100.00
43770;BME280;6597;52.218;9.882;2023-12-14T12:05:17;100959.31;;;3.79;100.00
43770;BME280;6597;52.218;9.882;2023-12-14T12:07:44;100949.81;;;3.78;100.00
43770;BME280;6597;52.218;9.882;2023-12-14T12:10:11;100950.69;;;3.72;100.00
43770;BME280;6597;52.218;9.882;2023-12-14T12:12:37;100950.72;;;3.71;100.00
43770;BME280;6597;52.218;9.882;2023-12-14T12:15:05;100950.72;;;3.71;100.00
43770;BME280;6597;52.218;9.882;2023-12-14T12:17:32;100955.03;;;3.69;100.00
43770;BME280;6597;52.218;9.882;2023-12-14T12:20:04;100964.56;;;3.71;100.00
43770;BME280;6597;52.218;9.882;2023-12-14T12:22:31;100959.34;;;3.73;100.00
43770;BME280;6597;52.218;9.882;2023-12-14T12:24:57;100966.28;;;3.74;100.00
43770;BME280;6597;52.218;9.882;2023-12-14T12:27:26;100965.41;;;3.75;100.00
43770;BME280;6597;52.218;9.882;2023-12-14T12:29:52;100976.66;;;3.74;100.00
43770;BME280;6597;52.218;9.882;2023-12-14T12:32:20;100971.44;;;3.75;100.00
43770;BME280;6597;52.218;9.882;2023-12-14T12:34:46;100979.22;;;3.77;100.00
43770;BME280;6597;52.218;9.882;2023-12-14T12:37:14;100968.00;;;3.72;100.00
43770;BME280;6597;52.218;9.882;2023-12-14T12:39:41;100972.28;;;3.82;100.00
43770;BME280;6597;52.218;9.882;2023-12-14T12:42:07;100983.56;;;3.78;100.00
43770;BME280;6597;52.218;9.882;2023-12-14T12:44:34;100980.09;;;3.78;100.00
43770;BME280;6597;52.218;9.882;2023-12-14T12:47:00;100976.63;;;3.79;100.00
43770;BME280;6597;52.218;9.882;2023-12-14T12:49:27;100980.97;;;3.80;100.00
43770;BME280;6597;52.218;9.882;2023-12-14T12:51:54;100988.75;;;3.80;100.00
43770;BME280;6597;52.218;9.882;2023-12-14T12:54:22;100990.47;;;3.79;100.00
43770;BME280;6597;52.218;9.882;2023-12-14T12:56:49;100981.81;;;3.79;100.00
43770;BME280;6597;52.218;9.882;2023-12-14T12:59:16;100987.88;;;3.81;100.00